PAL910 RPMD-RPLL
Flight info
| Callsign | PAL910 |
|---|---|
| Flight time | N/A |
| Altitude | 38000 |
| Route | ANKIN3R ANKIN B473 LAIYA LAIYA3R |
| Aircraft | B77W/H-SDE1E2E3FGHIJ2J3J4J5M1RWXY/LB1D1 |
Departure
| Time | N/A |
|---|---|
| Airport | Francisco Bangoy International Airport (RPMD) |
Arrival
| Time | 2026-05-07 07:43 |
|---|---|
| Airport | Ninoy Aquino International Airport (RPLL) |
| Time | Latitude | Longitude | Altitude | Speed | Heading |
|---|---|---|---|---|---|
| 2026-05-07 07:43 | 14.51185 | 121.02253 | 88 ft | 3 kts | 250° |
| 2026-05-07 07:43 | 14.51174 | 121.02229 | 88 ft | 5 kts | 243° |
| 2026-05-07 07:43 | 14.51154 | 121.02192 | 88 ft | 0 kts | 241° |
| 2026-05-07 07:43 | 14.51145 | 121.02174 | 88 ft | 5 kts | 240° |
| 2026-05-07 07:44 | 14.51124 | 121.02138 | 88 ft | 6 kts | 240° |
| 2026-05-07 07:44 | 14.51102 | 121.02098 | 88 ft | 6 kts | 240° |
| 2026-05-07 07:44 | 14.51093 | 121.02082 | 88 ft | 0 kts | 240° |
| 2026-05-07 07:44 | 14.51090 | 121.02077 | 88 ft | 0 kts | 240° |
| 2026-05-07 07:45 | 14.51086 | 121.02069 | 88 ft | 3 kts | 240° |
| 2026-05-07 07:45 | 14.51064 | 121.02029 | 87 ft | 9 kts | 240° |
| 2026-05-07 07:45 | 14.51030 | 121.01968 | 88 ft | 9 kts | 240° |
| 2026-05-07 07:45 | 14.50996 | 121.01908 | 88 ft | 9 kts | 240° |
| 2026-05-07 07:46 | 14.50963 | 121.01849 | 87 ft | 9 kts | 240° |
| 2026-05-07 07:46 | 14.50932 | 121.01790 | 87 ft | 9 kts | 240° |
| 2026-05-07 07:46 | 14.50901 | 121.01734 | 88 ft | 8 kts | 240° |
| 2026-05-07 07:46 | 14.50868 | 121.01678 | 87 ft | 9 kts | 239° |
| 2026-05-07 07:47 | 14.50836 | 121.01620 | 87 ft | 9 kts | 240° |
| 2026-05-07 07:47 | 14.50805 | 121.01562 | 88 ft | 9 kts | 241° |
| 2026-05-07 07:47 | 14.50773 | 121.01505 | 87 ft | 9 kts | 240° |
| 2026-05-07 07:47 | 14.50741 | 121.01448 | 87 ft | 9 kts | 240° |
| 2026-05-07 07:48 | 14.50709 | 121.01391 | 87 ft | 9 kts | 240° |
| 2026-05-07 07:48 | 14.50677 | 121.01334 | 88 ft | 9 kts | 240° |
| 2026-05-07 07:48 | 14.50645 | 121.01276 | 87 ft | 9 kts | 240° |
| 2026-05-07 07:48 | 14.50614 | 121.01219 | 88 ft | 9 kts | 240° |
| 2026-05-07 07:49 | 14.50582 | 121.01162 | 87 ft | 9 kts | 241° |
| 2026-05-07 07:49 | 14.50551 | 121.01105 | 87 ft | 9 kts | 240° |
| 2026-05-07 07:49 | 14.50519 | 121.01050 | 87 ft | 9 kts | 239° |
| 2026-05-07 07:49 | 14.50488 | 121.00992 | 87 ft | 9 kts | 240° |
| 2026-05-07 07:50 | 14.50454 | 121.00932 | 87 ft | 9 kts | 240° |
| 2026-05-07 07:50 | 14.50421 | 121.00873 | 87 ft | 9 kts | 241° |
| 2026-05-07 07:50 | 14.50389 | 121.00816 | 88 ft | 7 kts | 240° |
| 2026-05-07 07:50 | 14.50385 | 121.00807 | 88 ft | 4 kts | 244° |
| 2026-05-07 07:51 | 14.50374 | 121.00748 | 87 ft | 10 kts | 279° |
| 2026-05-07 07:51 | 14.50389 | 121.00690 | 87 ft | 5 kts | 289° |
| 2026-05-07 07:51 | 14.50413 | 121.00665 | 88 ft | 5 kts | 335° |
| 2026-05-07 07:51 | 14.50442 | 121.00656 | 88 ft | 0 kts | 355° |
| 2026-05-07 07:52 | 14.50450 | 121.00656 | 88 ft | 1 kts | 1° |
| 2026-05-07 07:52 | 14.50459 | 121.00657 | 88 ft | 1 kts | 1° |
| 2026-05-07 07:52 | 14.50460 | 121.00657 | 88 ft | 0 kts | 1° |